Dead River Township, Maine
Current Conditions -  °F | °C
As of 11:15 AM on Friday 24 Oct 2014 (Local Time) from KWVL Reporting Station
Overcast Overcast  
Wind Chill: 42°   Ceiling: 600
Heat Index: 46°   Visibility: 3mi
Dew Point: 43°   Wind: 9mph
Humidity: 87%   Direction: 340°NNW
Pressure: 29.68"   Gusts: 16mph
Location:  45.0341°N, 70.0886°W
Report Text: KWVL 241515Z 34008G14KT 3SM BKN006 OVC013 08/06 A2968 RMK AO1
Loading
Personal Weather Stations






























Interactive Weather Map
Tropical Storm Tracking
New forecast layout! Learn more

10-Day Weather Forecast

Advertisements
Track Severe Weather on mobile